sensor_id;sensor_type;location;lat;lon;timestamp;temperature;humidity
3921;DHT22;1975;49.356;6.816;2023-01-15T00:01:27;9.10;99.90
3921;DHT22;1975;49.356;6.816;2023-01-15T00:03:54;9.10;99.90
3921;DHT22;1975;49.356;6.816;2023-01-15T00:06:19;9.10;99.90
3921;DHT22;1975;49.356;6.816;2023-01-15T00:08:45;9.10;99.90
3921;DHT22;1975;49.356;6.816;2023-01-15T00:11:11;9.10;99.90
3921;DHT22;1975;49.356;6.816;2023-01-15T00:13:37;9.10;99.90
3921;DHT22;1975;49.356;6.816;2023-01-15T00:16:06;9.10;99.90
3921;DHT22;1975;49.356;6.816;2023-01-15T00:18:32;9.10;99.90
3921;DHT22;1975;49.356;6.816;2023-01-15T00:20:58;9.10;99.90
3921;DHT22;1975;49.356;6.816;2023-01-15T00:23:24;9.10;99.90
3921;DHT22;1975;49.356;6.816;2023-01-15T00:26:10;9.10;99.90
3921;DHT22;1975;49.356;6.816;2023-01-15T00:28:55;9.10;99.90
3921;DHT22;1975;49.356;6.816;2023-01-15T00:31:21;9.10;99.90
3921;DHT22;1975;49.356;6.816;2023-01-15T00:33:46;9.10;99.90
3921;DHT22;1975;49.356;6.816;2023-01-15T00:36:11;9.10;99.90
3921;DHT22;1975;49.356;6.816;2023-01-15T00:38:37;9.10;99.90
3921;DHT22;1975;49.356;6.816;2023-01-15T00:41:02;9.10;99.90
3921;DHT22;1975;49.356;6.816;2023-01-15T00:43:28;9.10;99.90
3921;DHT22;1975;49.356;6.816;2023-01-15T00:45:53;9.10;99.90
3921;DHT22;1975;49.356;6.816;2023-01-15T00:48:19;9.10;99.90
3921;DHT22;1975;49.356;6.816;2023-01-15T00:50:44;9.10;99.90
3921;DHT22;1975;49.356;6.816;2023-01-15T00:53:10;9.10;99.90
3921;DHT22;1975;49.356;6.816;2023-01-15T00:55:36;9.10;99.90
3921;DHT22;1975;49.356;6.816;2023-01-15T00:58:01;9.10;99.90
3921;DHT22;1975;49.356;6.816;2023-01-15T01:00:27;9.10;99.90
3921;DHT22;1975;49.356;6.816;2023-01-15T01:02:52;9.10;99.90
3921;DHT22;1975;49.356;6.816;2023-01-15T01:05:18;9.10;99.90
3921;DHT22;1975;49.356;6.816;2023-01-15T01:07:43;9.10;99.90
3921;DHT22;1975;49.356;6.816;2023-01-15T01:10:09;9.10;99.90
3921;DHT22;1975;49.356;6.816;2023-01-15T01:12:35;9.10;99.90
3921;DHT22;1975;49.356;6.816;2023-01-15T01:15:01;9.10;99.90
3921;DHT22;1975;49.356;6.816;2023-01-15T01:17:27;9.10;99.90
3921;DHT22;1975;49.356;6.816;2023-01-15T01:19:52;9.10;99.90
3921;DHT22;1975;49.356;6.816;2023-01-15T01:22:18;9.10;99.90
3921;DHT22;1975;49.356;6.816;2023-01-15T01:24:43;9.10;99.90
3921;DHT22;1975;49.356;6.816;2023-01-15T01:27:09;9.10;99.90
3921;DHT22;1975;49.356;6.816;2023-01-15T01:29:34;9.00;99.90
3921;DHT22;1975;49.356;6.816;2023-01-15T01:31:59;9.10;99.90
3921;DHT22;1975;49.356;6.816;2023-01-15T01:34:25;9.00;99.90
3921;DHT22;1975;49.356;6.816;2023-01-15T01:36:50;9.00;99.90
3921;DHT22;1975;49.356;6.816;2023-01-15T01:39:17;9.10;99.90
3921;DHT22;1975;49.356;6.816;2023-01-15T01:41:43;9.00;99.90
3921;DHT22;1975;49.356;6.816;2023-01-15T01:46:53;9.00;99.90
3921;DHT22;1975;49.356;6.816;2023-01-15T01:49:19;9.00;99.90
3921;DHT22;1975;49.356;6.816;2023-01-15T01:51:46;9.00;99.90
3921;DHT22;1975;49.356;6.816;2023-01-15T01:54:12;9.00;99.90
3921;DHT22;1975;49.356;6.816;2023-01-15T01:56:39;9.00;99.90
3921;DHT22;1975;49.356;6.816;2023-01-15T01:59:05;9.00;99.90
3921;DHT22;1975;49.356;6.816;2023-01-15T02:01:31;9.10;99.90
3921;DHT22;1975;49.356;6.816;2023-01-15T02:03:57;9.00;99.90
3921;DHT22;1975;49.356;6.816;2023-01-15T02:06:23;9.00;99.90
3921;DHT22;1975;49.356;6.816;2023-01-15T02:08:51;9.00;99.90
3921;DHT22;1975;49.356;6.816;2023-01-15T02:11:18;9.10;99.90
3921;DHT22;1975;49.356;6.816;2023-01-15T02:17:21;9.00;99.90
3921;DHT22;1975;49.356;6.816;2023-01-15T02:27:11;9.00;99.90
3921;DHT22;1975;49.356;6.816;2023-01-15T02:32:06;9.00;99.90
3921;DHT22;1975;49.356;6.816;2023-01-15T02:34:33;9.00;99.90
3921;DHT22;1975;49.356;6.816;2023-01-15T02:37:01;9.00;99.90
3921;DHT22;1975;49.356;6.816;2023-01-15T02:39:28;9.00;99.90
3921;DHT22;1975;49.356;6.816;2023-01-15T02:41:54;9.00;99.90
3921;DHT22;1975;49.356;6.816;2023-01-15T02:44:21;9.00;99.90
3921;DHT22;1975;49.356;6.816;2023-01-15T02:46:47;9.00;99.90
3921;DHT22;1975;49.356;6.816;2023-01-15T02:49:15;9.00;99.90
3921;DHT22;1975;49.356;6.816;2023-01-15T02:51:44;9.00;99.90
3921;DHT22;1975;49.356;6.816;2023-01-15T02:54:12;9.00;99.90
3921;DHT22;1975;49.356;6.816;2023-01-15T02:56:40;8.90;99.90
3921;DHT22;1975;49.356;6.816;2023-01-15T02:59:09;8.90;99.90
3921;DHT22;1975;49.356;6.816;2023-01-15T03:01:37;8.90;99.90
3921;DHT22;1975;49.356;6.816;2023-01-15T03:06:45;9.00;99.90
3921;DHT22;1975;49.356;6.816;2023-01-15T03:09:12;9.00;99.90
3921;DHT22;1975;49.356;6.816;2023-01-15T03:11:41;8.90;99.90
3921;DHT22;1975;49.356;6.816;2023-01-15T03:14:19;8.90;99.90
3921;DHT22;1975;49.356;6.816;2023-01-15T03:16:52;8.90;99.90
3921;DHT22;1975;49.356;6.816;2023-01-15T03:22:05;8.90;99.90
3921;DHT22;1975;49.356;6.816;2023-01-15T03:24:34;8.90;99.90
3921;DHT22;1975;49.356;6.816;2023-01-15T03:27:02;8.90;99.90
3921;DHT22;1975;49.356;6.816;2023-01-15T03:29:28;8.90;99.90
3921;DHT22;1975;49.356;6.816;2023-01-15T03:31:55;8.90;99.90
3921;DHT22;1975;49.356;6.816;2023-01-15T03:34:20;8.90;99.90
3921;DHT22;1975;49.356;6.816;2023-01-15T03:36:46;8.90;99.90
3921;DHT22;1975;49.356;6.816;2023-01-15T03:39:11;8.80;99.90
3921;DHT22;1975;49.356;6.816;2023-01-15T03:41:43;8.80;99.90
3921;DHT22;1975;49.356;6.816;2023-01-15T03:46:48;8.80;99.90
3921;DHT22;1975;49.356;6.816;2023-01-15T03:49:17;8.80;99.90
3921;DHT22;1975;49.356;6.816;2023-01-15T03:54:13;8.80;99.90
3921;DHT22;1975;49.356;6.816;2023-01-15T03:56:52;8.80;99.90
3921;DHT22;1975;49.356;6.816;2023-01-15T03:59:26;8.80;99.90
3921;DHT22;1975;49.356;6.816;2023-01-15T04:01:53;8.80;99.90
3921;DHT22;1975;49.356;6.816;2023-01-15T04:04:19;8.80;99.90
3921;DHT22;1975;49.356;6.816;2023-01-15T04:06:44;8.80;99.90
3921;DHT22;1975;49.356;6.816;2023-01-15T04:09:11;8.80;99.90
3921;DHT22;1975;49.356;6.816;2023-01-15T04:11:37;8.80;99.90
3921;DHT22;1975;49.356;6.816;2023-01-15T04:14:03;8.80;99.90
3921;DHT22;1975;49.356;6.816;2023-01-15T04:16:29;8.80;99.90
3921;DHT22;1975;49.356;6.816;2023-01-15T04:18:55;8.80;99.90
3921;DHT22;1975;49.356;6.816;2023-01-15T04:21:21;8.80;99.90
3921;DHT22;1975;49.356;6.816;2023-01-15T04:23:46;8.80;99.90
3921;DHT22;1975;49.356;6.816;2023-01-15T04:26:12;8.80;99.90
3921;DHT22;1975;49.356;6.816;2023-01-15T04:28:38;8.70;99.90
3921;DHT22;1975;49.356;6.816;2023-01-15T04:31:03;8.70;99.90
3921;DHT22;1975;49.356;6.816;2023-01-15T04:33:29;8.80;99.90
3921;DHT22;1975;49.356;6.816;2023-01-15T04:35:54;8.70;99.90
3921;DHT22;1975;49.356;6.816;2023-01-15T04:38:19;8.70;99.90
3921;DHT22;1975;49.356;6.816;2023-01-15T04:40:45;8.70;99.90
3921;DHT22;1975;49.356;6.816;2023-01-15T04:43:29;8.70;99.90
3921;DHT22;1975;49.356;6.816;2023-01-15T04:46:13;8.70;99.90
3921;DHT22;1975;49.356;6.816;2023-01-15T04:48:39;8.70;99.90
3921;DHT22;1975;49.356;6.816;2023-01-15T04:51:05;8.70;99.90
3921;DHT22;1975;49.356;6.816;2023-01-15T04:53:31;8.70;99.90
3921;DHT22;1975;49.356;6.816;2023-01-15T04:56:03;8.70;99.90
3921;DHT22;1975;49.356;6.816;2023-01-15T04:58:29;8.70;99.90
3921;DHT22;1975;49.356;6.816;2023-01-15T05:00:54;8.70;99.90
3921;DHT22;1975;49.356;6.816;2023-01-15T05:03:20;8.70;99.90
3921;DHT22;1975;49.356;6.816;2023-01-15T05:05:45;8.70;99.90
3921;DHT22;1975;49.356;6.816;2023-01-15T05:08:11;8.70;99.90
3921;DHT22;1975;49.356;6.816;2023-01-15T05:10:36;8.60;99.90
3921;DHT22;1975;49.356;6.816;2023-01-15T05:13:02;8.70;99.90
3921;DHT22;1975;49.356;6.816;2023-01-15T05:15:27;8.70;99.90
3921;DHT22;1975;49.356;6.816;2023-01-15T05:17:53;8.70;99.90
3921;DHT22;1975;49.356;6.816;2023-01-15T05:20:18;8.70;99.90
3921;DHT22;1975;49.356;6.816;2023-01-15T05:22:44;8.60;99.90
3921;DHT22;1975;49.356;6.816;2023-01-15T05:25:09;8.60;99.90
3921;DHT22;1975;49.356;6.816;2023-01-15T05:27:35;8.60;99.90
3921;DHT22;1975;49.356;6.816;2023-01-15T05:30:00;8.60;99.90
3921;DHT22;1975;49.356;6.816;2023-01-15T05:32:26;8.60;99.90
3921;DHT22;1975;49.356;6.816;2023-01-15T05:34:51;8.60;99.90
3921;DHT22;1975;49.356;6.816;2023-01-15T05:37:17;8.60;99.90
3921;DHT22;1975;49.356;6.816;2023-01-15T05:39:42;8.60;99.90
3921;DHT22;1975;49.356;6.816;2023-01-15T05:42:07;8.60;99.90
3921;DHT22;1975;49.356;6.816;2023-01-15T05:44:33;8.60;99.90
3921;DHT22;1975;49.356;6.816;2023-01-15T05:46:59;8.60;99.90
3921;DHT22;1975;49.356;6.816;2023-01-15T05:49:27;8.60;99.90
3921;DHT22;1975;49.356;6.816;2023-01-15T05:51:55;8.60;99.90
3921;DHT22;1975;49.356;6.816;2023-01-15T05:54:26;8.60;99.90
3921;DHT22;1975;49.356;6.816;2023-01-15T05:56:52;8.50;99.90
3921;DHT22;1975;49.356;6.816;2023-01-15T05:59:18;8.50;99.90
3921;DHT22;1975;49.356;6.816;2023-01-15T06:01:44;8.50;99.90
3921;DHT22;1975;49.356;6.816;2023-01-15T06:04:10;8.50;99.90
3921;DHT22;1975;49.356;6.816;2023-01-15T06:06:38;8.50;99.90
3921;DHT22;1975;49.356;6.816;2023-01-15T06:09:04;8.50;99.90
3921;DHT22;1975;49.356;6.816;2023-01-15T06:11:29;8.50;99.90
3921;DHT22;1975;49.356;6.816;2023-01-15T06:13:55;8.50;99.90
3921;DHT22;1975;49.356;6.816;2023-01-15T06:16:20;8.50;99.90
3921;DHT22;1975;49.356;6.816;2023-01-15T06:18:46;8.50;99.90
3921;DHT22;1975;49.356;6.816;2023-01-15T06:21:12;8.50;99.90
3921;DHT22;1975;49.356;6.816;2023-01-15T06:23:38;8.50;99.90
3921;DHT22;1975;49.356;6.816;2023-01-15T06:26:05;8.50;99.90
3921;DHT22;1975;49.356;6.816;2023-01-15T06:28:31;8.50;99.90
3921;DHT22;1975;49.356;6.816;2023-01-15T06:30:56;8.50;99.90
3921;DHT22;1975;49.356;6.816;2023-01-15T06:33:22;8.50;99.90
3921;DHT22;1975;49.356;6.816;2023-01-15T06:35:47;8.40;99.90
3921;DHT22;1975;49.356;6.816;2023-01-15T06:38:13;8.40;99.90
3921;DHT22;1975;49.356;6.816;2023-01-15T06:40:38;8.40;99.90
3921;DHT22;1975;49.356;6.816;2023-01-15T06:43:04;8.50;99.90
3921;DHT22;1975;49.356;6.816;2023-01-15T06:45:48;8.50;99.90
3921;DHT22;1975;49.356;6.816;2023-01-15T06:48:32;8.40;99.90
3921;DHT22;1975;49.356;6.816;2023-01-15T06:50:58;8.40;99.90
3921;DHT22;1975;49.356;6.816;2023-01-15T06:53:24;8.40;99.90
3921;DHT22;1975;49.356;6.816;2023-01-15T06:55:49;8.40;99.90
3921;DHT22;1975;49.356;6.816;2023-01-15T06:58:15;8.40;99.90
3921;DHT22;1975;49.356;6.816;2023-01-15T07:00:40;8.40;99.90
3921;DHT22;1975;49.356;6.816;2023-01-15T07:03:11;8.40;99.90
3921;DHT22;1975;49.356;6.816;2023-01-15T07:05:38;8.40;99.90
3921;DHT22;1975;49.356;6.816;2023-01-15T07:08:04;8.40;99.90
3921;DHT22;1975;49.356;6.816;2023-01-15T07:10:29;8.40;99.90
3921;DHT22;1975;49.356;6.816;2023-01-15T07:12:55;8.40;99.90
3921;DHT22;1975;49.356;6.816;2023-01-15T07:15:20;8.40;99.90
3921;DHT22;1975;49.356;6.816;2023-01-15T07:17:46;8.40;99.90
3921;DHT22;1975;49.356;6.816;2023-01-15T07:20:11;8.40;99.90
3921;DHT22;1975;49.356;6.816;2023-01-15T07:22:37;8.40;99.90
3921;DHT22;1975;49.356;6.816;2023-01-15T07:25:02;8.40;99.90
3921;DHT22;1975;49.356;6.816;2023-01-15T07:27:28;8.30;99.90
3921;DHT22;1975;49.356;6.816;2023-01-15T07:29:54;8.30;99.90
3921;DHT22;1975;49.356;6.816;2023-01-15T07:32:19;8.30;99.90
3921;DHT22;1975;49.356;6.816;2023-01-15T07:34:45;8.30;99.90
3921;DHT22;1975;49.356;6.816;2023-01-15T07:37:10;8.30;99.90
3921;DHT22;1975;49.356;6.816;2023-01-15T07:39:36;8.30;99.90
3921;DHT22;1975;49.356;6.816;2023-01-15T07:42:01;8.30;99.90
3921;DHT22;1975;49.356;6.816;2023-01-15T07:44:45;8.30;99.90
3921;DHT22;1975;49.356;6.816;2023-01-15T07:47:29;8.30;99.90
3921;DHT22;1975;49.356;6.816;2023-01-15T07:50:23;8.30;99.90
3921;DHT22;1975;49.356;6.816;2023-01-15T07:52:49;8.30;99.90
3921;DHT22;1975;49.356;6.816;2023-01-15T07:55:14;8.30;99.90
3921;DHT22;1975;49.356;6.816;2023-01-15T07:57:40;8.30;99.90
3921;DHT22;1975;49.356;6.816;2023-01-15T08:00:07;8.30;99.90
3921;DHT22;1975;49.356;6.816;2023-01-15T08:02:34;8.30;99.90
3921;DHT22;1975;49.356;6.816;2023-01-15T08:05:00;8.30;99.90
3921;DHT22;1975;49.356;6.816;2023-01-15T08:07:25;8.30;99.90
3921;DHT22;1975;49.356;6.816;2023-01-15T08:09:51;8.30;99.90
3921;DHT22;1975;49.356;6.816;2023-01-15T08:12:16;8.30;99.90
3921;DHT22;1975;49.356;6.816;2023-01-15T08:15:10;8.30;99.90
3921;DHT22;1975;49.356;6.816;2023-01-15T08:17:57;8.30;99.90
3921;DHT22;1975;49.356;6.816;2023-01-15T08:20:23;8.30;99.90
3921;DHT22;1975;49.356;6.816;2023-01-15T08:22:49;8.20;99.90
3921;DHT22;1975;49.356;6.816;2023-01-15T08:25:16;8.30;99.90
3921;DHT22;1975;49.356;6.816;2023-01-15T08:27:42;8.30;99.90
3921;DHT22;1975;49.356;6.816;2023-01-15T08:30:09;8.20;99.90
3921;DHT22;1975;49.356;6.816;2023-01-15T08:32:35;8.20;99.90
3921;DHT22;1975;49.356;6.816;2023-01-15T08:35:00;8.20;99.90
3921;DHT22;1975;49.356;6.816;2023-01-15T08:37:26;8.20;99.90
3921;DHT22;1975;49.356;6.816;2023-01-15T08:39:51;8.20;99.90
3921;DHT22;1975;49.356;6.816;2023-01-15T08:42:18;8.20;99.90
3921;DHT22;1975;49.356;6.816;2023-01-15T08:44:44;8.20;99.90
3921;DHT22;1975;49.356;6.816;2023-01-15T08:47:09;8.20;99.90
3921;DHT22;1975;49.356;6.816;2023-01-15T08:49:35;8.20;99.90
3921;DHT22;1975;49.356;6.816;2023-01-15T08:52:00;8.20;99.90
3921;DHT22;1975;49.356;6.816;2023-01-15T08:54:25;8.20;99.90
3921;DHT22;1975;49.356;6.816;2023-01-15T08:56:51;8.20;99.90
3921;DHT22;1975;49.356;6.816;2023-01-15T08:59:17;8.20;99.90
3921;DHT22;1975;49.356;6.816;2023-01-15T09:01:42;8.20;99.90
3921;DHT22;1975;49.356;6.816;2023-01-15T09:04:12;8.20;99.90
3921;DHT22;1975;49.356;6.816;2023-01-15T09:06:37;8.20;99.90
3921;DHT22;1975;49.356;6.816;2023-01-15T09:09:03;8.20;99.90
3921;DHT22;1975;49.356;6.816;2023-01-15T09:11:28;8.20;99.90
3921;DHT22;1975;49.356;6.816;2023-01-15T09:13:54;8.10;99.90
3921;DHT22;1975;49.356;6.816;2023-01-15T09:16:19;8.20;99.90
3921;DHT22;1975;49.356;6.816;2023-01-15T09:18:45;8.20;99.90
3921;DHT22;1975;49.356;6.816;2023-01-15T09:21:10;8.20;99.90
3921;DHT22;1975;49.356;6.816;2023-01-15T09:23:36;8.10;99.90
3921;DHT22;1975;49.356;6.816;2023-01-15T09:26:02;8.10;99.90
3921;DHT22;1975;49.356;6.816;2023-01-15T09:28:30;8.10;99.90
3921;DHT22;1975;49.356;6.816;2023-01-15T09:30:56;8.10;99.90
3921;DHT22;1975;49.356;6.816;2023-01-15T09:33:21;8.10;99.90
3921;DHT22;1975;49.356;6.816;2023-01-15T09:35:47;8.10;99.90
3921;DHT22;1975;49.356;6.816;2023-01-15T09:38:13;8.10;99.90
3921;DHT22;1975;49.356;6.816;2023-01-15T09:43:17;8.10;99.90
3921;DHT22;1975;49.356;6.816;2023-01-15T09:45:46;8.10;99.90
3921;DHT22;1975;49.356;6.816;2023-01-15T09:48:17;8.10;99.90
3921;DHT22;1975;49.356;6.816;2023-01-15T09:53:58;8.10;99.90
3921;DHT22;1975;49.356;6.816;2023-01-15T09:56:01;8.10;99.90
3921;DHT22;1975;49.356;6.816;2023-01-15T09:58:32;8.10;99.90
3921;DHT22;1975;49.356;6.816;2023-01-15T10:00:58;8.10;99.90
3921;DHT22;1975;49.356;6.816;2023-01-15T10:03:32;8.10;99.90
3921;DHT22;1975;49.356;6.816;2023-01-15T10:06:07;8.10;99.90
3921;DHT22;1975;49.356;6.816;2023-01-15T10:11:01;8.10;99.90
3921;DHT22;1975;49.356;6.816;2023-01-15T10:13:40;8.00;99.90
3921;DHT22;1975;49.356;6.816;2023-01-15T10:16:08;8.10;99.90
3921;DHT22;1975;49.356;6.816;2023-01-15T10:18:34;8.10;99.90
3921;DHT22;1975;49.356;6.816;2023-01-15T10:21:18;8.00;99.90
3921;DHT22;1975;49.356;6.816;2023-01-15T10:29:20;8.00;99.90
3921;DHT22;1975;49.356;6.816;2023-01-15T10:32:01;8.10;99.90
3921;DHT22;1975;49.356;6.816;2023-01-15T10:40:04;8.00;99.90
3921;DHT22;1975;49.356;6.816;2023-01-15T10:42:37;8.10;99.90
3921;DHT22;1975;49.356;6.816;2023-01-15T10:45:08;8.00;99.90
3921;DHT22;1975;49.356;6.816;2023-01-15T10:47:36;8.00;99.90
3921;DHT22;1975;49.356;6.816;2023-01-15T10:50:19;8.00;99.90
3921;DHT22;1975;49.356;6.816;2023-01-15T10:52:47;8.00;99.90
3921;DHT22;1975;49.356;6.816;2023-01-15T10:55:25;8.00;99.90
3921;DHT22;1975;49.356;6.816;2023-01-15T10:58:00;8.00;99.90
3921;DHT22;1975;49.356;6.816;2023-01-15T11:00:28;8.00;99.90
3921;DHT22;1975;49.356;6.816;2023-01-15T11:03:01;8.00;99.90
3921;DHT22;1975;49.356;6.816;2023-01-15T11:05:35;8.00;99.90
3921;DHT22;1975;49.356;6.816;2023-01-15T11:08:04;8.00;99.90
3921;DHT22;1975;49.356;6.816;2023-01-15T11:10:31;8.00;99.90
3921;DHT22;1975;49.356;6.816;2023-01-15T11:12:58;8.00;99.90
3921;DHT22;1975;49.356;6.816;2023-01-15T11:15:44;8.00;99.90
3921;DHT22;1975;49.356;6.816;2023-01-15T11:18:30;8.00;99.90
3921;DHT22;1975;49.356;6.816;2023-01-15T11:21:17;8.00;99.90
3921;DHT22;1975;49.356;6.816;2023-01-15T11:23:43;8.00;99.90
3921;DHT22;1975;49.356;6.816;2023-01-15T11:26:09;8.00;99.90
3921;DHT22;1975;49.356;6.816;2023-01-15T11:28:41;7.80;99.90
3921;DHT22;1975;49.356;6.816;2023-01-15T11:31:07;7.40;99.90
3921;DHT22;1975;49.356;6.816;2023-01-15T11:33:33;7.50;99.90
3921;DHT22;1975;49.356;6.816;2023-01-15T11:36:00;7.60;99.90
3921;DHT22;1975;49.356;6.816;2023-01-15T11:38:30;7.70;99.90
3921;DHT22;1975;49.356;6.816;2023-01-15T11:40:57;7.70;99.90
3921;DHT22;1975;49.356;6.816;2023-01-15T11:43:25;7.80;99.90
3921;DHT22;1975;49.356;6.816;2023-01-15T11:46:23;7.80;99.90
3921;DHT22;1975;49.356;6.816;2023-01-15T11:49:21;7.80;99.90
3921;DHT22;1975;49.356;6.816;2023-01-15T11:52:06;7.90;99.90
3921;DHT22;1975;49.356;6.816;2023-01-15T11:54:35;7.90;99.90
3921;DHT22;1975;49.356;6.816;2023-01-15T11:57:01;7.90;99.90
3921;DHT22;1975;49.356;6.816;2023-01-15T11:59:27;7.90;99.90
3921;DHT22;1975;49.356;6.816;2023-01-15T12:01:59;7.90;99.90
3921;DHT22;1975;49.356;6.816;2023-01-15T12:04:49;7.90;99.90
3921;DHT22;1975;49.356;6.816;2023-01-15T12:07:16;7.90;99.90
3921;DHT22;1975;49.356;6.816;2023-01-15T12:12:48;7.90;99.90
3921;DHT22;1975;49.356;6.816;2023-01-15T12:15:28;7.90;99.90
3921;DHT22;1975;49.356;6.816;2023-01-15T12:23:34;8.00;99.90
3921;DHT22;1975;49.356;6.816;2023-01-15T12:28:48;7.90;99.90
3921;DHT22;1975;49.356;6.816;2023-01-15T12:31:23;7.90;99.90
3921;DHT22;1975;49.356;6.816;2023-01-15T12:36:19;8.00;99.90
3921;DHT22;1975;49.356;6.816;2023-01-15T12:38:58;8.00;99.90
3921;DHT22;1975;49.356;6.816;2023-01-15T12:41:29;7.80;99.90
3921;DHT22;1975;49.356;6.816;2023-01-15T12:44:17;7.40;99.90
3921;DHT22;1975;49.356;6.816;2023-01-15T12:47:04;7.20;99.90
3921;DHT22;1975;49.356;6.816;2023-01-15T12:49:33;7.00;99.90
3921;DHT22;1975;49.356;6.816;2023-01-15T12:52:03;7.00;99.90
3921;DHT22;1975;49.356;6.816;2023-01-15T12:54:32;7.00;99.90
3921;DHT22;1975;49.356;6.816;2023-01-15T12:57:11;6.90;99.90
3921;DHT22;1975;49.356;6.816;2023-01-15T12:59:41;6.90;99.90
3921;DHT22;1975;49.356;6.816;2023-01-15T13:02:28;6.90;99.90
3921;DHT22;1975;49.356;6.816;2023-01-15T13:05:07;6.90;99.90
3921;DHT22;1975;49.356;6.816;2023-01-15T13:07:38;6.90;99.90
3921;DHT22;1975;49.356;6.816;2023-01-15T13:10:08;6.80;99.90
3921;DHT22;1975;49.356;6.816;2023-01-15T13:12:35;6.80;99.90
3921;DHT22;1975;49.356;6.816;2023-01-15T13:15:02;6.80;99.90
3921;DHT22;1975;49.356;6.816;2023-01-15T13:17:31;6.80;99.90
3921;DHT22;1975;49.356;6.816;2023-01-15T13:22:24;6.80;99.90
3921;DHT22;1975;49.356;6.816;2023-01-15T13:27:53;6.70;99.90
3921;DHT22;1975;49.356;6.816;2023-01-15T13:33:43;6.70;99.90
3921;DHT22;1975;49.356;6.816;2023-01-15T13:36:12;6.80;99.90
3921;DHT22;1975;49.356;6.816;2023-01-15T13:38:43;6.80;99.90
3921;DHT22;1975;49.356;6.816;2023-01-15T13:41:09;7.00;99.90
3921;DHT22;1975;49.356;6.816;2023-01-15T13:43:38;7.10;99.90
3921;DHT22;1975;49.356;6.816;2023-01-15T13:46:07;7.20;99.90
3921;DHT22;1975;49.356;6.816;2023-01-15T13:48:35;7.30;99.90
3921;DHT22;1975;49.356;6.816;2023-01-15T13:51:04;7.30;99.90
3921;DHT22;1975;49.356;6.816;2023-01-15T13:53:31;7.40;99.90
3921;DHT22;1975;49.356;6.816;2023-01-15T13:55:58;7.40;99.90
3921;DHT22;1975;49.356;6.816;2023-01-15T13:58:31;7.50;99.90
3921;DHT22;1975;49.356;6.816;2023-01-15T14:01:01;7.50;99.90
3921;DHT22;1975;49.356;6.816;2023-01-15T14:03:27;7.50;99.90
3921;DHT22;1975;49.356;6.816;2023-01-15T14:05:56;7.50;99.90
3921;DHT22;1975;49.356;6.816;2023-01-15T14:08:24;7.50;99.90
3921;DHT22;1975;49.356;6.816;2023-01-15T14:10:50;7.50;99.90
3921;DHT22;1975;49.356;6.816;2023-01-15T14:18:41;7.60;99.90
3921;DHT22;1975;49.356;6.816;2023-01-15T14:21:20;7.50;99.90
3921;DHT22;1975;49.356;6.816;2023-01-15T14:28:55;7.60;99.90
3921;DHT22;1975;49.356;6.816;2023-01-15T14:36:17;7.60;99.90
3921;DHT22;1975;49.356;6.816;2023-01-15T14:38:47;7.60;99.90
3921;DHT22;1975;49.356;6.816;2023-01-15T14:41:13;7.60;99.90
3921;DHT22;1975;49.356;6.816;2023-01-15T14:43:39;7.60;99.90
3921;DHT22;1975;49.356;6.816;2023-01-15T14:48:50;7.60;99.90
3921;DHT22;1975;49.356;6.816;2023-01-15T14:51:17;7.60;99.90
3921;DHT22;1975;49.356;6.816;2023-01-15T14:53:47;7.60;99.90
3921;DHT22;1975;49.356;6.816;2023-01-15T14:56:23;7.60;99.90
3921;DHT22;1975;49.356;6.816;2023-01-15T15:03:53;7.60;99.90
3921;DHT22;1975;49.356;6.816;2023-01-15T15:06:21;7.60;99.90
3921;DHT22;1975;49.356;6.816;2023-01-15T15:08:46;7.60;99.90
3921;DHT22;1975;49.356;6.816;2023-01-15T15:11:14;7.60;99.90
3921;DHT22;1975;49.356;6.816;2023-01-15T15:14:00;7.60;99.90
3921;DHT22;1975;49.356;6.816;2023-01-15T15:16:28;7.70;99.90
3921;DHT22;1975;49.356;6.816;2023-01-15T15:18:58;7.60;99.90
3921;DHT22;1975;49.356;6.816;2023-01-15T15:21:26;7.60;99.90
3921;DHT22;1975;49.356;6.816;2023-01-15T15:24:04;7.70;99.90
3921;DHT22;1975;49.356;6.816;2023-01-15T15:26:32;7.60;99.90
3921;DHT22;1975;49.356;6.816;2023-01-15T15:28:59;7.70;99.90
3921;DHT22;1975;49.356;6.816;2023-01-15T15:31:24;7.70;99.90
3921;DHT22;1975;49.356;6.816;2023-01-15T15:33:52;7.60;99.90
3921;DHT22;1975;49.356;6.816;2023-01-15T15:36:18;7.70;99.90
3921;DHT22;1975;49.356;6.816;2023-01-15T15:38:50;7.70;99.90
3921;DHT22;1975;49.356;6.816;2023-01-15T15:41:16;7.60;99.90
3921;DHT22;1975;49.356;6.816;2023-01-15T15:44:02;7.60;99.90
3921;DHT22;1975;49.356;6.816;2023-01-15T15:46:49;7.60;99.90
3921;DHT22;1975;49.356;6.816;2023-01-15T15:49:37;7.70;99.90
3921;DHT22;1975;49.356;6.816;2023-01-15T15:52:11;7.70;99.90
3921;DHT22;1975;49.356;6.816;2023-01-15T15:54:37;7.60;99.90
3921;DHT22;1975;49.356;6.816;2023-01-15T16:01:57;7.60;99.90
3921;DHT22;1975;49.356;6.816;2023-01-15T16:04:23;7.60;99.90
3921;DHT22;1975;49.356;6.816;2023-01-15T16:06:49;7.60;99.90
3921;DHT22;1975;49.356;6.816;2023-01-15T16:09:21;7.70;99.90
3921;DHT22;1975;49.356;6.816;2023-01-15T16:11:48;7.70;99.90
3921;DHT22;1975;49.356;6.816;2023-01-15T16:14:14;7.60;99.90
3921;DHT22;1975;49.356;6.816;2023-01-15T16:16:41;7.60;99.90
3921;DHT22;1975;49.356;6.816;2023-01-15T16:19:08;7.60;99.90
3921;DHT22;1975;49.356;6.816;2023-01-15T16:21:39;7.60;99.90
3921;DHT22;1975;49.356;6.816;2023-01-15T16:24:19;7.60;99.90
3921;DHT22;1975;49.356;6.816;2023-01-15T16:26:47;7.60;99.90
3921;DHT22;1975;49.356;6.816;2023-01-15T16:29:23;7.60;99.90
3921;DHT22;1975;49.356;6.816;2023-01-15T16:31:50;7.60;99.90
3921;DHT22;1975;49.356;6.816;2023-01-15T16:34:17;7.60;99.90
3921;DHT22;1975;49.356;6.816;2023-01-15T16:36:43;7.60;99.90
3921;DHT22;1975;49.356;6.816;2023-01-15T16:39:16;7.70;99.90
3921;DHT22;1975;49.356;6.816;2023-01-15T16:41:42;7.60;99.90
3921;DHT22;1975;49.356;6.816;2023-01-15T16:44:09;7.60;99.90
3921;DHT22;1975;49.356;6.816;2023-01-15T16:46:54;7.70;99.90
3921;DHT22;1975;49.356;6.816;2023-01-15T16:51:51;7.60;99.90
3921;DHT22;1975;49.356;6.816;2023-01-15T16:57:01;7.60;99.90
3921;DHT22;1975;49.356;6.816;2023-01-15T17:02:04;7.60;99.90
3921;DHT22;1975;49.356;6.816;2023-01-15T17:04:34;7.60;99.90
3921;DHT22;1975;49.356;6.816;2023-01-15T17:07:22;7.60;99.90
3921;DHT22;1975;49.356;6.816;2023-01-15T17:09:47;7.60;99.90
3921;DHT22;1975;49.356;6.816;2023-01-15T17:15:27;7.60;99.90
3921;DHT22;1975;49.356;6.816;2023-01-15T17:17:54;7.60;99.90
3921;DHT22;1975;49.356;6.816;2023-01-15T17:20:20;7.60;99.90
3921;DHT22;1975;49.356;6.816;2023-01-15T17:22:51;7.60;99.90
3921;DHT22;1975;49.356;6.816;2023-01-15T17:27:51;7.60;99.90
3921;DHT22;1975;49.356;6.816;2023-01-15T17:30:18;7.60;99.90
3921;DHT22;1975;49.356;6.816;2023-01-15T17:32:44;7.60;99.90
3921;DHT22;1975;49.356;6.816;2023-01-15T17:35:19;7.60;99.90
3921;DHT22;1975;49.356;6.816;2023-01-15T17:37:45;7.60;99.90
3921;DHT22;1975;49.356;6.816;2023-01-15T17:40:11;7.60;99.90
3921;DHT22;1975;49.356;6.816;2023-01-15T17:42:36;7.60;99.90
3921;DHT22;1975;49.356;6.816;2023-01-15T17:45:02;7.60;99.90
3921;DHT22;1975;49.356;6.816;2023-01-15T17:47:27;7.60;99.90
3921;DHT22;1975;49.356;6.816;2023-01-15T17:49:53;7.60;99.90
3921;DHT22;1975;49.356;6.816;2023-01-15T17:52:18;7.60;99.90
3921;DHT22;1975;49.356;6.816;2023-01-15T17:54:44;7.60;99.90
3921;DHT22;1975;49.356;6.816;2023-01-15T17:57:28;7.30;99.90
3921;DHT22;1975;49.356;6.816;2023-01-15T18:00:13;7.00;99.90
3921;DHT22;1975;49.356;6.816;2023-01-15T18:02:57;6.90;99.90
3921;DHT22;1975;49.356;6.816;2023-01-15T18:05:42;7.00;99.90
3921;DHT22;1975;49.356;6.816;2023-01-15T18:08:08;7.10;99.90
3921;DHT22;1975;49.356;6.816;2023-01-15T18:10:34;7.20;99.90
3921;DHT22;1975;49.356;6.816;2023-01-15T18:12:59;7.30;99.90
3921;DHT22;1975;49.356;6.816;2023-01-15T18:15:27;7.30;99.90
3921;DHT22;1975;49.356;6.816;2023-01-15T18:17:53;7.30;99.90